Aviation Digital Data Service (ADDS)

Output produced by METARs form (2041 UTC 21 July 2017)
found at http://www.aviationweather.gov/adds/metars/
 
TAF TXKF 211731Z 2118/2218 24015KT 9999 VCSH SCT020 BKN300 
     PROB30 
     TEMPO 2119/2203 24015G25KT 4800 SHRA BKN015